createdAt,value
2022-08-10T00:01:53.616Z,10.73
2022-08-10T00:04:23.835Z,10.65
2022-08-10T00:06:55.789Z,10.02
2022-08-10T00:09:25.047Z,11.00
2022-08-10T00:11:52.671Z,11.13
2022-08-10T00:14:20.645Z,10.55
2022-08-10T00:16:48.795Z,10.52
2022-08-10T00:19:18.085Z,11.23
2022-08-10T00:21:47.429Z,11.02
2022-08-10T00:24:15.803Z,10.88
2022-08-10T00:27:50.066Z,10.55
2022-08-10T00:29:32.386Z,10.50
2022-08-10T00:32:00.085Z,10.30
2022-08-10T00:34:29.690Z,9.90
2022-08-10T00:36:58.807Z,10.15
2022-08-10T00:39:28.646Z,10.63
2022-08-10T00:42:02.175Z,10.68
2022-08-10T00:44:44.484Z,10.63
2022-08-10T00:47:22.550Z,10.88
2022-08-10T00:50:01.852Z,11.68
2022-08-10T00:52:30.911Z,11.55
2022-08-10T00:54:59.267Z,10.63
2022-08-10T00:57:27.760Z,11.23
2022-08-10T00:59:59.323Z,10.18
2022-08-10T01:02:30.603Z,10.98
2022-08-10T01:05:07.802Z,11.65
2022-08-10T01:07:53.514Z,11.00
2022-08-10T01:10:28.398Z,10.10
2022-08-10T01:13:14.287Z,10.48
2022-08-10T01:16:18.172Z,10.32
2022-08-10T01:19:18.101Z,10.95
2022-08-10T01:22:10.398Z,10.05
2022-08-10T01:24:59.927Z,10.65
2022-08-10T01:27:36.494Z,10.98
2022-08-10T01:30:13.441Z,9.55
2022-08-10T01:33:06.898Z,10.43
2022-08-10T01:35:46.172Z,10.65
2022-08-10T01:38:42.000Z,10.10
2022-08-10T01:41:45.553Z,10.60
2022-08-10T01:46:56.905Z,10.43
2022-08-10T01:49:26.897Z,11.23
2022-08-10T01:52:00.511Z,10.77
2022-08-10T01:54:30.648Z,10.27
2022-08-10T01:56:59.828Z,10.38
2022-08-10T01:59:41.811Z,9.65
2022-08-10T02:02:25.540Z,9.98
2022-08-10T02:04:54.695Z,10.43
2022-08-10T02:07:27.724Z,10.40
2022-08-10T02:10:04.799Z,10.33
2022-08-10T02:12:35.984Z,9.60
2022-08-10T02:15:12.661Z,9.80
2022-08-10T02:18:02.245Z,10.25
2022-08-10T02:20:40.189Z,11.05
2022-08-10T02:23:16.508Z,9.65
2022-08-10T02:25:45.046Z,11.38
2022-08-10T02:28:29.992Z,10.82
2022-08-10T02:31:16.844Z,10.38
2022-08-10T02:33:56.529Z,10.50
2022-08-10T02:36:32.122Z,10.82
2022-08-10T02:45:14.169Z,11.00
2022-08-10T02:45:24.707Z,11.05
2022-08-10T02:48:07.244Z,10.75
2022-08-10T02:50:40.331Z,11.40
2022-08-10T02:53:55.751Z,10.90
2022-08-10T02:56:58.461Z,11.45
2022-08-10T02:59:42.055Z,11.63
2022-08-10T03:02:20.049Z,11.00
2022-08-10T03:04:55.277Z,11.65
2022-08-10T03:07:44.352Z,11.02
2022-08-10T03:10:41.092Z,10.52
2022-08-10T03:13:11.236Z,11.80
2022-08-10T03:15:40.377Z,11.02
2022-08-10T03:18:09.351Z,11.75
2022-08-10T03:20:40.806Z,11.43
2022-08-10T03:23:23.372Z,11.48
2022-08-10T03:25:55.116Z,11.98
2022-08-10T03:28:29.264Z,10.95
2022-08-10T03:31:00.092Z,11.40
2022-08-10T03:33:32.446Z,11.20
2022-08-10T03:36:43.773Z,11.85
2022-08-10T03:38:51.891Z,11.25
2022-08-10T03:41:36.641Z,11.57
2022-08-10T03:44:06.951Z,11.77
2022-08-10T03:46:37.393Z,11.40
2022-08-10T03:49:07.063Z,11.18
2022-08-10T03:51:36.097Z,11.30
2022-08-10T03:54:07.374Z,11.20
2022-08-10T03:56:37.616Z,11.45
2022-08-10T03:59:07.595Z,10.82
2022-08-10T04:02:41.696Z,11.10
2022-08-10T04:04:25.666Z,10.50
2022-08-10T04:06:57.077Z,11.05
2022-08-10T04:09:54.353Z,11.10
2022-08-10T04:12:24.373Z,10.93
2022-08-10T04:14:53.544Z,10.95
2022-08-10T04:18:01.311Z,11.45
2022-08-10T04:20:34.385Z,10.50
2022-08-10T04:23:12.304Z,10.57
2022-08-10T04:25:41.031Z,9.57
2022-08-10T04:28:10.744Z,9.27
2022-08-10T04:30:40.521Z,9.20
2022-08-10T04:33:13.824Z,9.18
2022-08-10T04:35:45.232Z,8.52
2022-08-10T04:38:15.615Z,8.77
2022-08-10T04:40:45.118Z,8.48
2022-08-10T04:43:13.596Z,9.10
2022-08-10T04:45:50.423Z,8.75
2022-08-10T04:48:39.900Z,8.05
2022-08-10T04:51:18.428Z,7.78
2022-08-10T04:54:04.864Z,8.30
2022-08-10T04:56:37.149Z,8.18
2022-08-10T04:59:06.920Z,7.82
2022-08-10T05:02:21.359Z,7.88
2022-08-10T05:04:36.624Z,8.50
2022-08-10T05:07:18.404Z,7.72
2022-08-10T05:10:01.827Z,7.25
2022-08-10T05:12:37.387Z,7.70
2022-08-10T05:15:13.906Z,7.47
2022-08-10T05:18:03.320Z,6.95
2022-08-10T05:20:31.269Z,7.15
2022-08-10T05:22:59.065Z,6.13
2022-08-10T05:25:26.842Z,7.00
2022-08-10T05:27:57.480Z,6.13
2022-08-10T05:30:25.488Z,6.28
2022-08-10T05:32:58.530Z,6.53
2022-08-10T05:35:55.187Z,5.72
2022-08-10T05:38:20.774Z,6.15
2022-08-10T05:40:50.465Z,6.05
2022-08-10T05:43:22.438Z,5.78
2022-08-10T05:46:19.938Z,7.30
2022-08-10T05:48:58.811Z,5.68
2022-08-10T05:51:30.093Z,5.93
2022-08-10T05:54:05.120Z,5.47
2022-08-10T05:56:53.265Z,5.22
2022-08-10T06:00:31.061Z,5.25
2022-08-10T06:02:35.512Z,5.07
2022-08-10T06:05:32.264Z,5.32
2022-08-10T06:08:17.573Z,4.97
2022-08-10T06:12:16.467Z,5.25
2022-08-10T06:14:06.144Z,4.57
2022-08-10T06:16:43.895Z,4.53
2022-08-10T06:19:15.170Z,4.90
2022-08-10T06:21:53.736Z,3.90
2022-08-10T06:24:31.403Z,4.60
2022-08-10T06:27:00.040Z,4.18
2022-08-10T06:29:30.935Z,4.20
2022-08-10T06:32:01.392Z,4.20
2022-08-10T06:34:36.501Z,3.67
2022-08-10T06:37:06.543Z,4.30
2022-08-10T06:39:36.762Z,4.07
2022-08-10T06:42:35.711Z,3.67
2022-08-10T06:45:16.632Z,3.95
2022-08-10T06:47:56.004Z,3.45
2022-08-10T06:50:44.822Z,3.80
2022-08-10T06:53:19.551Z,3.50
2022-08-10T06:55:55.526Z,3.03
2022-08-10T06:58:29.136Z,2.75
2022-08-10T07:00:58.890Z,3.40
2022-08-10T07:03:35.420Z,2.78
2022-08-10T07:06:06.777Z,3.20
2022-08-10T07:08:36.946Z,2.65
2022-08-10T07:11:11.850Z,2.40
2022-08-10T07:14:15.568Z,2.42
2022-08-10T07:16:32.400Z,2.70
2022-08-10T07:19:01.719Z,2.78
2022-08-10T07:21:31.088Z,2.67
2022-08-10T07:24:02.295Z,2.45
2022-08-10T07:26:32.982Z,2.38
2022-08-10T07:29:02.223Z,2.60
2022-08-10T07:31:55.190Z,2.40
2022-08-10T07:34:29.422Z,2.10
2022-08-10T07:37:03.709Z,2.17
2022-08-10T07:42:24.386Z,1.92
2022-08-10T07:44:52.930Z,1.80
2022-08-10T07:47:46.092Z,1.98
2022-08-10T07:50:22.568Z,1.65
2022-08-10T07:52:52.112Z,1.60
2022-08-10T07:56:05.317Z,2.20
2022-08-10T07:58:11.520Z,1.50
2022-08-10T08:00:40.945Z,1.77
2022-08-10T08:03:10.836Z,1.73
2022-08-10T08:05:58.443Z,1.80
2022-08-10T08:08:30.474Z,1.67
2022-08-10T08:10:59.658Z,1.90
2022-08-10T08:13:28.279Z,1.92
2022-08-10T08:16:17.532Z,2.05
2022-08-10T08:18:54.182Z,2.28
2022-08-10T08:24:08.455Z,1.90
2022-08-10T08:24:33.518Z,1.88
2022-08-10T08:27:03.821Z,2.03
2022-08-10T08:29:37.301Z,1.70
2022-08-10T08:32:06.391Z,1.40
2022-08-10T08:34:38.747Z,1.52
2022-08-10T08:37:09.765Z,1.70
2022-08-10T08:39:38.628Z,2.00
2022-08-10T08:42:26.311Z,2.03
2022-08-10T08:45:34.424Z,1.90
2022-08-10T08:48:08.385Z,1.70
2022-08-10T08:52:07.102Z,2.00
2022-08-10T08:54:16.945Z,2.03
2022-08-10T08:57:07.064Z,1.70
2022-08-10T09:00:07.000Z,2.00
2022-08-10T09:02:58.460Z,1.88
2022-08-10T09:05:58.792Z,2.30
2022-08-10T09:08:51.453Z,2.45
2022-08-10T09:11:56.514Z,2.30
2022-08-10T09:14:33.441Z,2.15
2022-08-10T09:17:25.041Z,2.03
2022-08-10T09:20:07.893Z,1.88
2022-08-10T09:22:44.767Z,2.17
2022-08-10T09:25:24.706Z,1.33
2022-08-10T09:28:01.270Z,1.80
2022-08-10T09:31:18.804Z,1.88
2022-08-10T09:36:20.490Z,1.80
2022-08-10T09:37:08.660Z,1.50
2022-08-10T09:40:12.573Z,1.48
2022-08-10T09:43:25.563Z,1.80
2022-08-10T09:46:06.604Z,1.60
2022-08-10T09:49:17.340Z,1.33
2022-08-10T09:52:00.834Z,1.25
2022-08-10T09:54:50.066Z,1.30
2022-08-10T09:57:44.099Z,1.40
2022-08-10T10:00:40.543Z,1.60
2022-08-10T10:03:40.712Z,1.90
2022-08-10T10:06:21.018Z,2.38
2022-08-10T10:09:10.686Z,2.75
2022-08-10T10:12:17.684Z,2.35
2022-08-10T10:15:24.626Z,1.60
2022-08-10T10:18:21.934Z,2.33
2022-08-10T10:21:24.240Z,2.10
2022-08-10T10:24:21.452Z,2.10
2022-08-10T10:26:57.939Z,1.95
2022-08-10T10:29:58.773Z,2.35
2022-08-10T10:32:37.139Z,2.40
2022-08-10T10:35:41.277Z,2.60
2022-08-10T10:38:12.249Z,2.10
2022-08-10T10:41:14.043Z,2.45
2022-08-10T10:44:09.854Z,2.05
2022-08-10T10:46:56.874Z,1.80
2022-08-10T10:49:46.296Z,2.05
2022-08-10T10:52:47.752Z,1.95
2022-08-10T10:56:13.366Z,1.70
